sensor_id;sensor_type;location;lat;lon;timestamp;pressure;altitude;pressure_sealevel;temperature;humidity
3654;BME280;70277;54.302;10.064;2023-08-07T00:01:52;100195.31;;;17.71;63.14
3654;BME280;70277;54.302;10.064;2023-08-07T00:04:19;100197.59;;;17.55;63.80
3654;BME280;70277;54.302;10.064;2023-08-07T00:06:46;100181.19;;;17.55;63.70
3654;BME280;70277;54.302;10.064;2023-08-07T00:09:12;100182.88;;;17.65;64.16
3654;BME280;70277;54.302;10.064;2023-08-07T00:11:39;100179.53;;;17.32;64.20
3654;BME280;70277;54.302;10.064;2023-08-07T00:14:05;100175.88;;;17.36;63.94
3654;BME280;70277;54.302;10.064;2023-08-07T00:16:32;100171.97;;;17.15;64.16
3654;BME280;70277;54.302;10.064;2023-08-07T00:18:58;100172.47;;;17.53;63.13
3654;BME280;70277;54.302;10.064;2023-08-07T00:21:25;100169.28;;;17.37;64.07
3654;BME280;70277;54.302;10.064;2023-08-07T00:23:51;100158.50;;;17.55;63.49
3654;BME280;70277;54.302;10.064;2023-08-07T00:26:18;100160.19;;;17.28;63.29
3654;BME280;70277;54.302;10.064;2023-08-07T00:28:44;100157.88;;;17.21;63.86
3654;BME280;70277;54.302;10.064;2023-08-07T00:31:11;100165.88;;;17.18;63.96
3654;BME280;70277;54.302;10.064;2023-08-07T00:33:38;100165.88;;;17.18;64.18
3654;BME280;70277;54.302;10.064;2023-08-07T00:36:06;100169.84;;;17.12;64.56
3654;BME280;70277;54.302;10.064;2023-08-07T00:38:32;100170.06;;;17.51;63.27
3654;BME280;70277;54.302;10.064;2023-08-07T00:40:59;100160.59;;;17.21;63.93
3654;BME280;70277;54.302;10.064;2023-08-07T00:43:26;100161.19;;;17.32;64.17
3654;BME280;70277;54.302;10.064;2023-08-07T00:45:53;100156.44;;;17.24;64.45
3654;BME280;70277;54.302;10.064;2023-08-07T00:48:19;100147.25;;;17.20;64.38
3654;BME280;70277;54.302;10.064;2023-08-07T00:50:47;100157.69;;;17.18;64.20
3654;BME280;70277;54.302;10.064;2023-08-07T00:53:14;100160.72;;;17.52;64.12
3654;BME280;70277;54.302;10.064;2023-08-07T00:55:42;100149.53;;;17.04;64.66
3654;BME280;70277;54.302;10.064;2023-08-07T00:58:09;100151.47;;;17.26;64.36
3654;BME280;70277;54.302;10.064;2023-08-07T01:00:35;100153.72;;;17.24;64.50
3654;BME280;70277;54.302;10.064;2023-08-07T01:03:05;100153.50;;;17.57;63.80
3654;BME280;70277;54.302;10.064;2023-08-07T01:05:34;100161.78;;;16.79;65.76
3654;BME280;70277;54.302;10.064;2023-08-07T01:08:01;100150.50;;;17.22;64.66
3654;BME280;70277;54.302;10.064;2023-08-07T01:10:35;100150.69;;;17.48;64.04
3654;BME280;70277;54.302;10.064;2023-08-07T01:13:14;100148.91;;;16.93;65.37
3654;BME280;70277;54.302;10.064;2023-08-07T01:15:43;100137.72;;;17.17;65.40
3654;BME280;70277;54.302;10.064;2023-08-07T01:18:10;100138.06;;;17.38;64.25
3654;BME280;70277;54.302;10.064;2023-08-07T01:20:37;100140.25;;;17.50;64.14
3654;BME280;70277;54.302;10.064;2023-08-07T01:23:04;100138.25;;;17.42;64.32
3654;BME280;70277;54.302;10.064;2023-08-07T01:25:31;100137.84;;;17.12;64.95
3654;BME280;70277;54.302;10.064;2023-08-07T01:28:17;100133.06;;;17.18;65.38
3654;BME280;70277;54.302;10.064;2023-08-07T01:30:50;100137.03;;;17.12;65.31
3654;BME280;70277;54.302;10.064;2023-08-07T01:33:27;100134.72;;;17.19;65.22
3654;BME280;70277;54.302;10.064;2023-08-07T01:36:02;100132.44;;;17.21;64.98
3654;BME280;70277;54.302;10.064;2023-08-07T01:38:33;100133.31;;;17.08;65.38
3654;BME280;70277;54.302;10.064;2023-08-07T01:41:01;100128.47;;;17.04;66.01
3654;BME280;70277;54.302;10.064;2023-08-07T01:43:29;100131.47;;;17.17;65.43
3654;BME280;70277;54.302;10.064;2023-08-07T01:45:57;100123.88;;;17.14;65.85
3654;BME280;70277;54.302;10.064;2023-08-07T01:48:25;100128.06;;;16.97;66.19
3654;BME280;70277;54.302;10.064;2023-08-07T01:50:53;100128.69;;;16.67;67.17
3654;BME280;70277;54.302;10.064;2023-08-07T01:53:19;100128.47;;;16.77;67.63
3654;BME280;70277;54.302;10.064;2023-08-07T01:55:46;100124.44;;;16.74;67.15
3654;BME280;70277;54.302;10.064;2023-08-07T01:58:12;100129.47;;;16.12;69.16
3654;BME280;70277;54.302;10.064;2023-08-07T02:00:39;100121.16;;;16.03;70.16
3654;BME280;70277;54.302;10.064;2023-08-07T02:03:05;100132.13;;;16.31;69.47
3654;BME280;70277;54.302;10.064;2023-08-07T02:05:32;100117.34;;;16.59;68.64
3654;BME280;70277;54.302;10.064;2023-08-07T02:07:58;100113.09;;;16.67;68.03
3654;BME280;70277;54.302;10.064;2023-08-07T02:10:25;100122.69;;;16.65;68.09
3654;BME280;70277;54.302;10.064;2023-08-07T02:12:51;100117.13;;;16.14;69.45
3654;BME280;70277;54.302;10.064;2023-08-07T02:15:18;100124.03;;;16.95;67.25
3654;BME280;70277;54.302;10.064;2023-08-07T02:17:44;100115.84;;;17.17;66.61
3654;BME280;70277;54.302;10.064;2023-08-07T02:20:11;100126.31;;;16.74;68.21
3654;BME280;70277;54.302;10.064;2023-08-07T02:22:37;100123.41;;;16.43;69.09
3654;BME280;70277;54.302;10.064;2023-08-07T02:25:04;100127.69;;;16.63;68.95
3654;BME280;70277;54.302;10.064;2023-08-07T02:27:31;100120.78;;;16.51;69.60
3654;BME280;70277;54.302;10.064;2023-08-07T02:29:57;100119.34;;;16.26;70.17
3654;BME280;70277;54.302;10.064;2023-08-07T02:32:24;100122.22;;;16.63;68.99
3654;BME280;70277;54.302;10.064;2023-08-07T02:34:50;100110.66;;;16.10;71.17
3654;BME280;70277;54.302;10.064;2023-08-07T02:37:17;100115.69;;;16.17;70.65
3654;BME280;70277;54.302;10.064;2023-08-07T02:39:44;100115.31;;;16.24;70.76
3654;BME280;70277;54.302;10.064;2023-08-07T02:42:10;100121.38;;;16.34;70.32
3654;BME280;70277;54.302;10.064;2023-08-07T02:44:37;100111.88;;;16.32;70.64
3654;BME280;70277;54.302;10.064;2023-08-07T02:47:03;100114.63;;;16.59;70.04
3654;BME280;70277;54.302;10.064;2023-08-07T02:49:30;100108.31;;;16.18;70.60
3654;BME280;70277;54.302;10.064;2023-08-07T02:51:57;100113.72;;;16.36;70.19
3654;BME280;70277;54.302;10.064;2023-08-07T02:54:24;100110.06;;;16.41;70.10
3654;BME280;70277;54.302;10.064;2023-08-07T02:56:50;100112.88;;;16.22;70.99
3654;BME280;70277;54.302;10.064;2023-08-07T02:59:17;100106.03;;;16.25;70.96
3654;BME280;70277;54.302;10.064;2023-08-07T03:01:44;100107.75;;;15.88;72.35
3654;BME280;70277;54.302;10.064;2023-08-07T03:04:10;100094.47;;;16.00;72.08
3654;BME280;70277;54.302;10.064;2023-08-07T03:06:37;100098.72;;;16.06;72.02
3654;BME280;70277;54.302;10.064;2023-08-07T03:09:03;100093.25;;;15.92;72.62
3654;BME280;70277;54.302;10.064;2023-08-07T03:11:30;100096.69;;;16.26;71.56
3654;BME280;70277;54.302;10.064;2023-08-07T03:13:56;100100.78;;;16.42;71.65
3654;BME280;70277;54.302;10.064;2023-08-07T03:16:23;100096.91;;;16.43;71.11
3654;BME280;70277;54.302;10.064;2023-08-07T03:18:49;100091.84;;;16.50;70.81
3654;BME280;70277;54.302;10.064;2023-08-07T03:21:16;100085.66;;;16.58;70.20
3654;BME280;70277;54.302;10.064;2023-08-07T03:23:42;100085.38;;;16.46;71.01
3654;BME280;70277;54.302;10.064;2023-08-07T03:26:11;100094.28;;;16.66;70.46
3654;BME280;70277;54.302;10.064;2023-08-07T03:28:45;100087.69;;;16.67;70.93
3654;BME280;70277;54.302;10.064;2023-08-07T03:31:14;100090.66;;;16.56;71.18
3654;BME280;70277;54.302;10.064;2023-08-07T03:33:40;100081.94;;;16.82;69.96
3654;BME280;70277;54.302;10.064;2023-08-07T03:36:07;100079.50;;;16.67;70.59
3654;BME280;70277;54.302;10.064;2023-08-07T03:38:33;100067.16;;;16.55;71.43
3654;BME280;70277;54.302;10.064;2023-08-07T03:41:00;100075.94;;;16.80;70.35
3654;BME280;70277;54.302;10.064;2023-08-07T03:43:26;100076.06;;;16.75;70.69
3654;BME280;70277;54.302;10.064;2023-08-07T03:45:56;100073.22;;;16.80;70.60
3654;BME280;70277;54.302;10.064;2023-08-07T03:48:28;100069.00;;;16.60;70.97
3654;BME280;70277;54.302;10.064;2023-08-07T03:51:07;100077.69;;;16.48;71.36
3654;BME280;70277;54.302;10.064;2023-08-07T03:53:41;100062.72;;;16.59;71.17
3654;BME280;70277;54.302;10.064;2023-08-07T03:56:07;100070.69;;;16.83;70.62
3654;BME280;70277;54.302;10.064;2023-08-07T03:58:34;100064.34;;;16.47;71.03
3654;BME280;70277;54.302;10.064;2023-08-07T04:01:00;100067.44;;;16.68;70.99
3654;BME280;70277;54.302;10.064;2023-08-07T04:03:27;100057.94;;;16.79;70.83
3654;BME280;70277;54.302;10.064;2023-08-07T04:05:54;100072.09;;;16.95;70.03
3654;BME280;70277;54.302;10.064;2023-08-07T04:08:21;100063.81;;;16.86;70.12
3654;BME280;70277;54.302;10.064;2023-08-07T04:11:01;100057.16;;;16.78;70.04
3654;BME280;70277;54.302;10.064;2023-08-07T04:13:28;100064.72;;;16.68;71.12
3654;BME280;70277;54.302;10.064;2023-08-07T04:15:55;100054.31;;;16.83;70.68
3654;BME280;70277;54.302;10.064;2023-08-07T04:18:22;100058.06;;;16.32;71.99
3654;BME280;70277;54.302;10.064;2023-08-07T04:20:56;100055.44;;;16.55;71.37
3654;BME280;70277;54.302;10.064;2023-08-07T04:23:23;100055.03;;;16.48;72.11
3654;BME280;70277;54.302;10.064;2023-08-07T04:25:53;100057.94;;;16.65;71.07
3654;BME280;70277;54.302;10.064;2023-08-07T04:28:20;100055.91;;;16.85;71.09
3654;BME280;70277;54.302;10.064;2023-08-07T04:30:49;100062.50;;;16.83;70.85
3654;BME280;70277;54.302;10.064;2023-08-07T04:33:19;100057.97;;;16.51;72.16
3654;BME280;70277;54.302;10.064;2023-08-07T04:35:46;100053.16;;;16.71;71.47
3654;BME280;70277;54.302;10.064;2023-08-07T04:38:16;100063.53;;;16.46;72.13
3654;BME280;70277;54.302;10.064;2023-08-07T04:40:47;100057.03;;;16.70;71.99
3654;BME280;70277;54.302;10.064;2023-08-07T04:43:14;100062.31;;;16.66;72.15
3654;BME280;70277;54.302;10.064;2023-08-07T04:45:41;100058.16;;;16.55;72.07
3654;BME280;70277;54.302;10.064;2023-08-07T04:48:08;100062.28;;;16.80;72.10
3654;BME280;70277;54.302;10.064;2023-08-07T04:50:34;100063.31;;;16.84;71.79
3654;BME280;70277;54.302;10.064;2023-08-07T04:53:01;100042.75;;;16.87;71.41
3654;BME280;70277;54.302;10.064;2023-08-07T04:55:28;100052.38;;;17.06;70.76
3654;BME280;70277;54.302;10.064;2023-08-07T04:57:54;100050.63;;;17.24;70.10
3654;BME280;70277;54.302;10.064;2023-08-07T05:00:23;100053.38;;;16.88;70.50
3654;BME280;70277;54.302;10.064;2023-08-07T05:02:49;100047.28;;;17.27;69.77
3654;BME280;70277;54.302;10.064;2023-08-07T05:05:17;100045.31;;;17.05;70.54
3654;BME280;70277;54.302;10.064;2023-08-07T05:07:47;100048.59;;;16.94;70.74
3654;BME280;70277;54.302;10.064;2023-08-07T05:10:14;100032.00;;;16.90;70.23
3654;BME280;70277;54.302;10.064;2023-08-07T05:12:40;100040.34;;;17.08;70.38
3654;BME280;70277;54.302;10.064;2023-08-07T05:15:07;100038.22;;;17.27;69.04
3654;BME280;70277;54.302;10.064;2023-08-07T05:17:34;100034.88;;;17.30;68.55
3654;BME280;70277;54.302;10.064;2023-08-07T05:20:00;100027.59;;;17.03;69.21
3654;BME280;70277;54.302;10.064;2023-08-07T05:22:27;100032.44;;;17.06;68.77
3654;BME280;70277;54.302;10.064;2023-08-07T05:24:53;100025.94;;;17.16;68.46
3654;BME280;70277;54.302;10.064;2023-08-07T05:27:20;100026.25;;;17.37;68.34
3654;BME280;70277;54.302;10.064;2023-08-07T05:29:46;100024.28;;;17.60;66.59
3654;BME280;70277;54.302;10.064;2023-08-07T05:32:14;100034.72;;;17.80;65.95
3654;BME280;70277;54.302;10.064;2023-08-07T05:34:41;100031.72;;;17.37;66.67
3654;BME280;70277;54.302;10.064;2023-08-07T05:37:07;100023.47;;;17.59;66.69
3654;BME280;70277;54.302;10.064;2023-08-07T05:39:35;100019.34;;;16.94;67.70
3654;BME280;70277;54.302;10.064;2023-08-07T05:42:01;100025.28;;;17.64;65.89
3654;BME280;70277;54.302;10.064;2023-08-07T05:44:28;100026.09;;;17.64;66.30
3654;BME280;70277;54.302;10.064;2023-08-07T05:46:55;100028.19;;;17.90;65.58
3654;BME280;70277;54.302;10.064;2023-08-07T05:49:22;100033.00;;;17.62;66.13
3654;BME280;70277;54.302;10.064;2023-08-07T05:51:51;100027.00;;;17.60;65.86
3654;BME280;70277;54.302;10.064;2023-08-07T05:54:18;100025.81;;;17.43;65.40
3654;BME280;70277;54.302;10.064;2023-08-07T05:56:44;100019.94;;;17.59;65.70
3654;BME280;70277;54.302;10.064;2023-08-07T05:59:11;100019.75;;;17.78;64.29
3654;BME280;70277;54.302;10.064;2023-08-07T06:01:37;100028.31;;;17.85;63.38
3654;BME280;70277;54.302;10.064;2023-08-07T06:04:04;100023.84;;;17.98;63.55
3654;BME280;70277;54.302;10.064;2023-08-07T06:06:30;100023.56;;;17.77;63.58
3654;BME280;70277;54.302;10.064;2023-08-07T06:09:01;100038.69;;;17.96;63.29
3654;BME280;70277;54.302;10.064;2023-08-07T06:11:29;100027.41;;;17.44;63.57
3654;BME280;70277;54.302;10.064;2023-08-07T06:13:55;100033.38;;;17.46;63.42
3654;BME280;70277;54.302;10.064;2023-08-07T06:16:22;100040.28;;;17.98;61.99
3654;BME280;70277;54.302;10.064;2023-08-07T06:18:48;100024.66;;;17.67;62.41
3654;BME280;70277;54.302;10.064;2023-08-07T06:21:15;100027.63;;;18.10;61.61
3654;BME280;70277;54.302;10.064;2023-08-07T06:23:42;100026.84;;;18.27;60.66
3654;BME280;70277;54.302;10.064;2023-08-07T06:26:08;100035.63;;;18.47;59.69
3654;BME280;70277;54.302;10.064;2023-08-07T06:28:35;100029.94;;;18.26;60.08
3654;BME280;70277;54.302;10.064;2023-08-07T06:31:11;100031.84;;;18.16;60.31
3654;BME280;70277;54.302;10.064;2023-08-07T06:33:38;100023.19;;;17.92;60.63
3654;BME280;70277;54.302;10.064;2023-08-07T06:36:04;100032.09;;;18.55;59.95
3654;BME280;70277;54.302;10.064;2023-08-07T06:38:31;100027.50;;;18.24;59.52
3654;BME280;70277;54.302;10.064;2023-08-07T06:40:58;100013.84;;;18.41;59.83
3654;BME280;70277;54.302;10.064;2023-08-07T06:43:24;100010.09;;;18.20;60.77
3654;BME280;70277;54.302;10.064;2023-08-07T06:45:51;100020.28;;;17.88;60.39
3654;BME280;70277;54.302;10.064;2023-08-07T06:48:19;100004.94;;;18.27;59.91
3654;BME280;70277;54.302;10.064;2023-08-07T06:50:49;100013.28;;;18.05;60.03
3654;BME280;70277;54.302;10.064;2023-08-07T06:53:16;100028.03;;;18.35;59.44
3654;BME280;70277;54.302;10.064;2023-08-07T06:55:43;100027.94;;;18.09;59.49
3654;BME280;70277;54.302;10.064;2023-08-07T06:58:10;100039.09;;;18.21;60.09
3654;BME280;70277;54.302;10.064;2023-08-07T07:00:36;100031.38;;;18.23;59.91
3654;BME280;70277;54.302;10.064;2023-08-07T07:03:03;100031.75;;;18.48;59.69
3654;BME280;70277;54.302;10.064;2023-08-07T07:05:30;100041.25;;;18.41;59.54
3654;BME280;70277;54.302;10.064;2023-08-07T07:07:58;100034.97;;;18.50;58.85
3654;BME280;70277;54.302;10.064;2023-08-07T07:10:24;100029.66;;;18.45;59.22
3654;BME280;70277;54.302;10.064;2023-08-07T07:12:51;100038.38;;;18.55;58.98
3654;BME280;70277;54.302;10.064;2023-08-07T07:15:18;100036.50;;;18.82;58.86
3654;BME280;70277;54.302;10.064;2023-08-07T07:17:47;100039.41;;;18.77;58.07
3654;BME280;70277;54.302;10.064;2023-08-07T07:20:14;100031.97;;;18.77;58.61
3654;BME280;70277;54.302;10.064;2023-08-07T07:22:40;100033.97;;;18.46;59.71
3654;BME280;70277;54.302;10.064;2023-08-07T07:25:07;100023.91;;;18.81;59.17
3654;BME280;70277;54.302;10.064;2023-08-07T07:27:34;100027.50;;;18.90;58.87
3654;BME280;70277;54.302;10.064;2023-08-07T07:30:01;100047.00;;;19.06;58.60
3654;BME280;70277;54.302;10.064;2023-08-07T07:32:27;100036.50;;;18.73;59.22
3654;BME280;70277;54.302;10.064;2023-08-07T07:34:54;100037.34;;;18.25;60.37
3654;BME280;70277;54.302;10.064;2023-08-07T07:37:20;100037.31;;;18.16;60.52
3654;BME280;70277;54.302;10.064;2023-08-07T07:39:47;100045.47;;;18.56;59.86
3654;BME280;70277;54.302;10.064;2023-08-07T07:42:13;100035.81;;;18.59;60.66
3654;BME280;70277;54.302;10.064;2023-08-07T07:44:40;100043.25;;;18.67;59.69
3654;BME280;70277;54.302;10.064;2023-08-07T07:47:08;100048.66;;;18.41;60.40
3654;BME280;70277;54.302;10.064;2023-08-07T07:49:39;100050.41;;;18.28;60.45
3654;BME280;70277;54.302;10.064;2023-08-07T07:52:06;100068.41;;;18.21;61.11
3654;BME280;70277;54.302;10.064;2023-08-07T07:54:33;100060.22;;;17.89;61.96
3654;BME280;70277;54.302;10.064;2023-08-07T07:56:59;100052.91;;;18.16;61.74
3654;BME280;70277;54.302;10.064;2023-08-07T07:59:26;100063.84;;;18.07;61.67
3654;BME280;70277;54.302;10.064;2023-08-07T08:01:52;100065.16;;;18.67;60.90
3654;BME280;70277;54.302;10.064;2023-08-07T08:04:18;100075.88;;;18.37;61.08
3654;BME280;70277;54.302;10.064;2023-08-07T08:06:45;100074.63;;;18.44;60.95
3654;BME280;70277;54.302;10.064;2023-08-07T08:09:14;100070.94;;;18.57;60.09
3654;BME280;70277;54.302;10.064;2023-08-07T08:11:41;100063.13;;;18.81;59.58
3654;BME280;70277;54.302;10.064;2023-08-07T08:14:08;100068.78;;;19.02;58.88
3654;BME280;70277;54.302;10.064;2023-08-07T08:16:34;100071.69;;;19.23;58.24
3654;BME280;70277;54.302;10.064;2023-08-07T08:19:01;100067.78;;;19.42;57.85
3654;BME280;70277;54.302;10.064;2023-08-07T08:21:28;100067.78;;;19.68;57.24
3654;BME280;70277;54.302;10.064;2023-08-07T08:23:56;100071.19;;;19.30;57.40
3654;BME280;70277;54.302;10.064;2023-08-07T08:26:23;100074.06;;;19.68;56.63
3654;BME280;70277;54.302;10.064;2023-08-07T08:28:49;100092.66;;;19.19;57.40
3654;BME280;70277;54.302;10.064;2023-08-07T08:31:16;100066.69;;;19.17;57.56
3654;BME280;70277;54.302;10.064;2023-08-07T08:33:42;100074.53;;;18.75;57.59
3654;BME280;70277;54.302;10.064;2023-08-07T08:36:09;100095.78;;;18.69;57.82
3654;BME280;70277;54.302;10.064;2023-08-07T08:38:35;100080.94;;;18.61;57.87
3654;BME280;70277;54.302;10.064;2023-08-07T08:41:02;100087.72;;;18.64;57.51
3654;BME280;70277;54.302;10.064;2023-08-07T08:43:34;100091.03;;;19.18;56.62
3654;BME280;70277;54.302;10.064;2023-08-07T08:46:04;100070.69;;;19.19;56.40
3654;BME280;70277;54.302;10.064;2023-08-07T08:48:34;100081.81;;;19.40;55.73
3654;BME280;70277;54.302;10.064;2023-08-07T08:51:03;100091.34;;;19.34;55.82
3654;BME280;70277;54.302;10.064;2023-08-07T08:53:31;100086.03;;;19.38;55.56
3654;BME280;70277;54.302;10.064;2023-08-07T08:55:59;100078.75;;;19.59;55.16
3654;BME280;70277;54.302;10.064;2023-08-07T08:58:27;100087.31;;;19.40;54.87
3654;BME280;70277;54.302;10.064;2023-08-07T09:00:54;100080.53;;;20.19;53.68
3654;BME280;70277;54.302;10.064;2023-08-07T09:03:20;100087.16;;;19.45;54.38
3654;BME280;70277;54.302;10.064;2023-08-07T09:05:49;100102.00;;;19.44;54.24
3654;BME280;70277;54.302;10.064;2023-08-07T09:08:19;100082.81;;;19.36;54.49
3654;BME280;70277;54.302;10.064;2023-08-07T09:10:46;100095.22;;;19.50;54.35
3654;BME280;70277;54.302;10.064;2023-08-07T09:13:14;100088.50;;;20.12;53.10
3654;BME280;70277;54.302;10.064;2023-08-07T09:15:43;100078.41;;;19.61;53.35
3654;BME280;70277;54.302;10.064;2023-08-07T09:18:14;100090.22;;;19.09;56.37
3654;BME280;70277;54.302;10.064;2023-08-07T09:20:41;100107.63;;;18.96;55.92
3654;BME280;70277;54.302;10.064;2023-08-07T09:23:08;100103.34;;;18.55;57.93
3654;BME280;70277;54.302;10.064;2023-08-07T09:25:35;100098.44;;;18.34;59.99
3654;BME280;70277;54.302;10.064;2023-08-07T09:28:03;100108.41;;;18.30;59.15
3654;BME280;70277;54.302;10.064;2023-08-07T09:30:36;100114.09;;;18.91;58.11
3654;BME280;70277;54.302;10.064;2023-08-07T09:33:04;100117.00;;;18.95;58.72
3654;BME280;70277;54.302;10.064;2023-08-07T09:35:32;100108.47;;;18.96;57.01
3654;BME280;70277;54.302;10.064;2023-08-07T09:37:59;100106.38;;;19.02;56.68
3654;BME280;70277;54.302;10.064;2023-08-07T09:40:26;100117.03;;;19.21;56.04
3654;BME280;70277;54.302;10.064;2023-08-07T09:42:54;100100.72;;;19.33;55.95
3654;BME280;70277;54.302;10.064;2023-08-07T09:45:26;100121.38;;;19.13;56.06
3654;BME280;70277;54.302;10.064;2023-08-07T09:48:03;100099.50;;;18.64;57.60
3654;BME280;70277;54.302;10.064;2023-08-07T09:50:31;100110.88;;;18.40;59.36
3654;BME280;70277;54.302;10.064;2023-08-07T09:52:58;100106.53;;;18.08;60.22
3654;BME280;70277;54.302;10.064;2023-08-07T09:55:26;100109.56;;;18.07;58.48
3654;BME280;70277;54.302;10.064;2023-08-07T09:57:53;100114.00;;;18.16;58.01
3654;BME280;70277;54.302;10.064;2023-08-07T10:00:20;100122.72;;;18.27;58.13
3654;BME280;70277;54.302;10.064;2023-08-07T10:02:49;100125.69;;;18.48;58.00
3654;BME280;70277;54.302;10.064;2023-08-07T10:05:16;100130.78;;;18.72;57.74
3654;BME280;70277;54.302;10.064;2023-08-07T10:07:43;100119.38;;;18.39;58.43
3654;BME280;70277;54.302;10.064;2023-08-07T10:10:10;100125.13;;;18.20;58.95
3654;BME280;70277;54.302;10.064;2023-08-07T10:12:38;100125.28;;;18.72;58.14
3654;BME280;70277;54.302;10.064;2023-08-07T10:15:06;100128.13;;;19.07;56.59
3654;BME280;70277;54.302;10.064;2023-08-07T10:17:32;100115.75;;;19.36;54.89
3654;BME280;70277;54.302;10.064;2023-08-07T10:19:59;100125.91;;;19.44;54.17
3654;BME280;70277;54.302;10.064;2023-08-07T10:22:29;100116.38;;;19.59;54.36
3654;BME280;70277;54.302;10.064;2023-08-07T10:24:57;100124.38;;;20.07;53.12
3654;BME280;70277;54.302;10.064;2023-08-07T10:27:24;100112.81;;;19.75;52.23
3654;BME280;70277;54.302;10.064;2023-08-07T10:29:53;100115.09;;;19.39;51.67
3654;BME280;70277;54.302;10.064;2023-08-07T10:32:22;100107.50;;;19.79;50.62
3654;BME280;70277;54.302;10.064;2023-08-07T10:34:51;100125.91;;;19.52;50.55
3654;BME280;70277;54.302;10.064;2023-08-07T10:40:10;100133.47;;;19.12;53.61
3654;BME280;70277;54.302;10.064;2023-08-07T10:42:59;100128.94;;;18.99;55.27
3654;BME280;70277;54.302;10.064;2023-08-07T10:45:27;100132.66;;;19.12;54.57
3654;BME280;70277;54.302;10.064;2023-08-07T10:53:36;100145.38;;;18.99;55.56
3654;BME280;70277;54.302;10.064;2023-08-07T10:58:31;100124.09;;;19.13;55.43
3654;BME280;70277;54.302;10.064;2023-08-07T11:04:05;100135.75;;;19.27;55.31
3654;BME280;70277;54.302;10.064;2023-08-07T11:06:35;100150.72;;;19.04;55.99
3654;BME280;70277;54.302;10.064;2023-08-07T11:09:04;100145.09;;;19.78;54.73
3654;BME280;70277;54.302;10.064;2023-08-07T11:11:38;100150.13;;;19.59;54.91
3654;BME280;70277;54.302;10.064;2023-08-07T11:14:08;100158.66;;;19.49;56.81
3654;BME280;70277;54.302;10.064;2023-08-07T11:16:35;100164.50;;;19.65;55.98
3654;BME280;70277;54.302;10.064;2023-08-07T11:19:03;100157.38;;;19.20;56.73
3654;BME280;70277;54.302;10.064;2023-08-07T11:21:33;100177.53;;;19.16;57.00
3654;BME280;70277;54.302;10.064;2023-08-07T11:24:01;100169.44;;;19.02;57.29
3654;BME280;70277;54.302;10.064;2023-08-07T11:26:27;100161.59;;;19.44;55.94
3654;BME280;70277;54.302;10.064;2023-08-07T11:28:57;100161.56;;;20.43;52.88
3654;BME280;70277;54.302;10.064;2023-08-07T11:31:24;100151.13;;;20.28;53.04
3654;BME280;70277;54.302;10.064;2023-08-07T11:33:52;100181.44;;;20.57;52.94
3654;BME280;70277;54.302;10.064;2023-08-07T11:36:19;100173.16;;;21.46;51.18
3654;BME280;70277;54.302;10.064;2023-08-07T11:38:46;100162.00;;;21.22;51.24
3654;BME280;70277;54.302;10.064;2023-08-07T11:41:16;100156.75;;;20.40;52.79
3654;BME280;70277;54.302;10.064;2023-08-07T11:43:43;100164.56;;;21.27;51.83
3654;BME280;70277;54.302;10.064;2023-08-07T11:46:12;100156.34;;;20.97;51.83
3654;BME280;70277;54.302;10.064;2023-08-07T11:48:41;100144.28;;;21.52;51.05
3654;BME280;70277;54.302;10.064;2023-08-07T11:51:07;100158.75;;;21.20;51.35
3654;BME280;70277;54.302;10.064;2023-08-07T11:53:36;100146.84;;;21.57;49.51
3654;BME280;70277;54.302;10.064;2023-08-07T11:56:08;100175.47;;;20.85;48.24
3654;BME280;70277;54.302;10.064;2023-08-07T11:58:40;100155.47;;;20.29;49.34
3654;BME280;70277;54.302;10.064;2023-08-07T12:01:11;100140.22;;;20.49;50.39
3654;BME280;70277;54.302;10.064;2023-08-07T12:03:42;100160.84;;;21.02;48.62
3654;BME280;70277;54.302;10.064;2023-08-07T12:06:09;100157.06;;;21.57;46.82
3654;BME280;70277;54.302;10.064;2023-08-07T12:08:37;100176.19;;;21.03;47.19
3654;BME280;70277;54.302;10.064;2023-08-07T12:11:06;100144.41;;;19.99;49.41
3654;BME280;70277;54.302;10.064;2023-08-07T12:13:33;100168.38;;;19.38;51.30
3654;BME280;70277;54.302;10.064;2023-08-07T12:16:02;100170.25;;;19.28;51.80
3654;BME280;70277;54.302;10.064;2023-08-07T12:18:32;100169.00;;;19.43;53.78
3654;BME280;70277;54.302;10.064;2023-08-07T12:21:01;100168.03;;;20.00;51.76
3654;BME280;70277;54.302;10.064;2023-08-07T12:23:28;100162.88;;;20.45;46.92
3654;BME280;70277;54.302;10.064;2023-08-07T12:25:54;100174.66;;;20.55;46.92
3654;BME280;70277;54.302;10.064;2023-08-07T12:28:21;100166.84;;;21.67;45.88
3654;BME280;70277;54.302;10.064;2023-08-07T12:30:48;100166.06;;;21.45;45.68
3654;BME280;70277;54.302;10.064;2023-08-07T12:33:14;100148.72;;;21.99;44.87
3654;BME280;70277;54.302;10.064;2023-08-07T12:35:41;100168.69;;;21.63;45.61
3654;BME280;70277;54.302;10.064;2023-08-07T12:38:08;100156.72;;;21.38;46.15
3654;BME280;70277;54.302;10.064;2023-08-07T12:40:36;100164.94;;;21.17;47.09
3654;BME280;70277;54.302;10.064;2023-08-07T12:43:06;100144.56;;;20.50;46.89
3654;BME280;70277;54.302;10.064;2023-08-07T12:45:33;100154.16;;;20.35;48.17
3654;BME280;70277;54.302;10.064;2023-08-07T12:48:03;100165.75;;;20.02;49.87
3654;BME280;70277;54.302;10.064;2023-08-07T12:50:30;100182.19;;;20.19;51.84
3654;BME280;70277;54.302;10.064;2023-08-07T12:52:56;100196.75;;;19.24;56.51
3654;BME280;70277;54.302;10.064;2023-08-07T12:55:23;100193.31;;;19.10;58.86
3654;BME280;70277;54.302;10.064;2023-08-07T12:57:49;100188.03;;;19.57;58.38
3654;BME280;70277;54.302;10.064;2023-08-07T13:00:16;100200.78;;;19.36;57.31
3654;BME280;70277;54.302;10.064;2023-08-07T13:02:45;100188.69;;;19.54;55.84
3654;BME280;70277;54.302;10.064;2023-08-07T13:05:13;100206.47;;;18.82;55.98
3654;BME280;70277;54.302;10.064;2023-08-07T13:07:41;100221.97;;;18.86;59.66